Time;durP1;ratioP1;P1;durP2;ratioP2;P2;SDS_P1;SDS_P2;PMS_P1;PMS_P2;Temp;Humidity;BMP_temperature;BMP_pressure;BME280_temperature;BME280_humidity;BME280_pressure;Samples;Min_cycle;Max_cycle;Signal;HPM_P1;HPM_P2
2022/10/25 00:01:56;;;;;;;10.07;1.77;;;15.70;99.50;;;;;;5024235;28;20490;-65
2022/10/25 00:04:22;;;;;;;3.57;1.50;;;15.70;99.40;;;;;;5024876;28;20452;-65
2022/10/25 00:06:50;;;;;;;6.53;1.80;;;15.70;99.90;;;;;;5023776;28;20491;-66
2022/10/25 00:09:17;;;;;;;6.13;1.30;;;15.70;99.60;;;;;;5024509;28;20464;-66
2022/10/25 00:11:44;;;;;;;5.67;2.20;;;15.70;99.50;;;;;;5024424;28;20459;-66
2022/10/25 00:14:15;;;;;;;6.20;1.67;;;15.70;99.40;;;;;;5023660;28;20452;-66
2022/10/25 00:16:42;;;;;;;3.30;0.90;;;15.70;99.60;;;;;;5023976;28;20459;-66
2022/10/25 00:19:10;;;;;;;3.40;1.27;;;15.70;99.70;;;;;;5025269;28;20466;-66
2022/10/25 00:21:37;;;;;;;11.23;2.50;;;15.70;99.90;;;;;;5024925;28;20436;-66
2022/10/25 00:24:06;;;;;;;9.93;1.77;;;15.70;99.50;;;;;;5025845;28;20451;-66
2022/10/25 00:26:34;;;;;;;4.00;1.10;;;15.60;99.60;;;;;;5025074;28;20500;-65
2022/10/25 00:29:01;;;;;;;7.27;1.70;;;15.60;99.60;;;;;;5022989;28;20478;-64
2022/10/25 00:31:29;;;;;;;5.20;1.83;;;15.70;99.60;;;;;;5023782;28;20463;-65
2022/10/25 00:33:56;;;;;;;8.00;1.40;;;15.60;99.60;;;;;;5023239;28;20462;-65
2022/10/25 00:36:24;;;;;;;7.00;1.60;;;15.60;99.70;;;;;;5022746;28;20448;-65
2022/10/25 00:38:52;;;;;;;6.00;1.47;;;15.60;99.60;;;;;;5023552;28;20454;-65
2022/10/25 00:41:22;;;;;;;4.47;1.47;;;15.60;99.70;;;;;;5023502;28;20432;-65
2022/10/25 00:43:50;;;;;;;8.77;1.80;;;15.60;99.90;;;;;;5023002;28;20465;-65
2022/10/25 00:46:23;;;;;;;6.97;1.73;;;15.60;99.80;;;;;;5023071;28;20514;-65
2022/10/25 00:48:55;;;;;;;4.73;1.43;;;15.70;99.60;;;;;;5023454;28;20485;-66
2022/10/25 00:51:27;;;;;;;4.50;1.33;;;15.60;99.60;;;;;;5023047;28;20463;-65
2022/10/25 00:53:54;;;;;;;6.73;2.17;;;15.60;99.50;;;;;;5023313;28;20432;-64
2022/10/25 00:56:27;;;;;;;4.10;1.60;;;15.60;99.60;;;;;;5023950;28;20455;-64
2022/10/25 00:58:57;;;;;;;5.80;1.63;;;15.60;99.60;;;;;;5023245;28;20806;-64
2022/10/25 01:01:26;;;;;;;7.40;1.47;;;15.60;99.70;;;;;;5021688;28;20443;-64
2022/10/25 01:03:55;;;;;;;8.40;2.03;;;15.60;99.80;;;;;;5023327;28;20463;-64
2022/10/25 01:06:27;;;;;;;6.77;1.57;;;15.60;99.60;;;;;;5024657;28;20483;-64
2022/10/25 01:08:55;;;;;;;4.37;2.10;;;15.60;99.50;;;;;;5024067;28;20926;-64
2022/10/25 01:11:24;;;;;;;3.40;1.63;;;15.60;99.70;;;;;;5023390;28;20455;-64
2022/10/25 01:13:52;;;;;;;6.70;1.53;;;15.60;99.80;;;;;;5022822;28;20521;-65
2022/10/25 01:16:28;;;;;;;4.73;1.47;;;15.60;99.80;;;;;;5021314;28;20451;-65
2022/10/25 01:19:09;;;;;;;6.67;1.70;;;15.50;99.90;;;;;;5022559;28;20440;-65
2022/10/25 01:21:47;;;;;;;10.40;1.83;;;15.50;99.90;;;;;;5022135;28;20444;-65
2022/10/25 01:24:50;;;;;;;4.93;1.50;;;15.60;99.90;;;;;;5021076;28;20443;-65
2022/10/25 01:27:47;;;;;;;4.80;1.60;;;15.60;99.90;;;;;;5019441;28;20474;-64
2022/10/25 01:30:19;;;;;;;11.23;1.57;;;15.60;99.90;;;;;;5019422;28;20443;-64
2022/10/25 01:32:58;;;;;;;8.10;1.60;;;15.70;99.90;;;;;;5020067;28;20487;-65
2022/10/25 01:35:29;;;;;;;6.90;2.43;;;15.80;99.70;;;;;;5021478;28;20805;-65
2022/10/25 01:38:07;;;;;;;4.27;2.00;;;15.70;99.60;;;;;;5020803;28;20448;-65
2022/10/25 01:40:41;;;;;;;4.27;1.37;;;15.70;99.50;;;;;;5019988;28;20524;-65
2022/10/25 01:43:14;;;;;;;10.17;1.60;;;15.70;99.70;;;;;;5020322;28;20985;-66
2022/10/25 01:45:46;;;;;;;7.67;1.90;;;15.70;99.70;;;;;;5021844;28;20440;-65
2022/10/25 01:48:19;;;;;;;3.33;1.40;;;15.70;99.70;;;;;;5021625;28;20797;-65
2022/10/25 01:50:47;;;;;;;4.43;1.30;;;15.70;99.80;;;;;;5016873;28;20432;-65
2022/10/25 01:53:14;;;;;;;3.60;1.53;;;15.70;99.70;;;;;;5018560;28;20507;-65
2022/10/25 01:55:48;;;;;;;4.27;1.60;;;15.70;99.80;;;;;;5019936;28;20455;-65
2022/10/25 01:58:28;;;;;;;7.37;2.07;;;15.70;99.60;;;;;;5020668;28;20435;-65
2022/10/25 02:01:02;;;;;;;10.87;2.17;;;15.70;99.60;;;;;;5020800;28;20431;-65
2022/10/25 02:03:34;;;;;;;6.97;1.60;;;15.70;99.70;;;;;;5021371;28;21000;-65
2022/10/25 02:06:15;;;;;;;6.50;1.53;;;15.70;99.80;;;;;;5020836;28;20949;-66
2022/10/25 02:08:46;;;;;;;4.73;1.47;;;15.70;99.60;;;;;;5021263;28;20446;-66
2022/10/25 02:11:22;;;;;;;6.87;1.30;;;15.80;99.70;;;;;;5021508;28;20436;-66
2022/10/25 02:13:59;;;;;;;4.90;1.73;;;15.80;99.60;;;;;;5020393;28;20467;-65
2022/10/25 02:16:28;;;;;;;9.33;2.27;;;15.80;99.50;;;;;;5022153;28;20432;-65
2022/10/25 02:19:00;;;;;;;6.03;1.40;;;15.80;99.40;;;;;;5021413;28;20455;-65
2022/10/25 02:21:29;;;;;;;6.20;1.50;;;15.70;99.30;;;;;;5022621;28;20435;-65
2022/10/25 02:23:59;;;;;;;5.53;1.50;;;15.70;99.30;;;;;;5023116;28;20640;-65
2022/10/25 02:26:27;;;;;;;7.90;1.77;;;15.70;99.20;;;;;;5023466;28;20471;-64
2022/10/25 02:28:54;;;;;;;8.90;1.60;;;15.70;99.30;;;;;;5023048;28;20452;-65
2022/10/25 02:31:23;;;;;;;6.63;1.50;;;15.70;99.30;;;;;;5022731;28;20455;-65
2022/10/25 02:33:50;;;;;;;7.13;1.67;;;15.70;99.20;;;;;;5022190;28;20478;-65
2022/10/25 02:36:20;;;;;;;6.30;1.40;;;15.70;99.20;;;;;;5022686;28;20452;-65
2022/10/25 02:38:50;;;;;;;3.93;1.30;;;15.80;99.20;;;;;;5022082;28;20432;-65
2022/10/25 02:41:17;;;;;;;4.83;1.40;;;15.70;99.30;;;;;;5022542;28;20467;-65
2022/10/25 02:43:44;;;;;;;5.17;1.20;;;15.70;99.20;;;;;;5021866;28;20466;-65
2022/10/25 02:46:12;;;;;;;5.70;1.07;;;15.70;99.30;;;;;;5021290;28;20458;-65
2022/10/25 02:48:39;;;;;;;8.10;1.60;;;15.70;99.30;;;;;;5021811;28;20447;-66
2022/10/25 02:51:07;;;;;;;6.63;1.43;;;15.70;99.50;;;;;;5022544;28;20460;-65
2022/10/25 02:53:36;;;;;;;7.93;1.73;;;15.70;99.50;;;;;;5025286;28;20475;-65
2022/10/25 02:56:05;;;;;;;9.30;1.80;;;15.70;99.60;;;;;;5026733;28;20971;-65
2022/10/25 02:58:34;;;;;;;5.90;1.23;;;15.70;99.40;;;;;;5024635;28;20455;-65
2022/10/25 03:01:01;;;;;;;5.17;1.40;;;15.70;99.40;;;;;;5025741;28;20447;-65
2022/10/25 03:03:29;;;;;;;5.20;1.50;;;15.70;99.50;;;;;;5026592;28;20475;-65
2022/10/25 03:05:56;;;;;;;6.73;2.00;;;15.70;99.50;;;;;;5025201;28;20506;-66
2022/10/25 03:08:23;;;;;;;6.60;1.33;;;15.70;99.60;;;;;;5026104;28;20501;-65
2022/10/25 03:10:52;;;;;;;9.20;1.30;;;15.70;99.70;;;;;;5025511;28;20451;-66
2022/10/25 03:13:19;;;;;;;4.13;1.30;;;15.70;99.60;;;;;;5024835;28;20550;-65
2022/10/25 03:15:47;;;;;;;5.90;1.23;;;15.70;99.60;;;;;;5026567;28;20443;-65
2022/10/25 03:18:14;;;;;;;7.50;1.83;;;15.70;99.70;;;;;;5025045;28;20440;-66
2022/10/25 03:20:41;;;;;;;3.27;1.20;;;15.70;99.80;;;;;;5025306;28;20459;-66
2022/10/25 03:23:09;;;;;;;5.40;1.70;;;15.70;99.70;;;;;;5023878;28;20470;-65
2022/10/25 03:25:36;;;;;;;3.27;1.27;;;15.70;99.70;;;;;;5024412;28;20448;-65
2022/10/25 03:28:04;;;;;;;3.47;1.37;;;15.70;99.60;;;;;;5024782;28;20495;-65
2022/10/25 03:30:31;;;;;;;8.73;1.40;;;15.70;99.70;;;;;;5025062;28;20443;-66
2022/10/25 03:32:58;;;;;;;5.17;1.43;;;15.70;99.60;;;;;;5024355;28;21024;-65
2022/10/25 03:35:26;;;;;;;8.23;1.90;;;15.80;99.70;;;;;;5024638;28;20704;-65
2022/10/25 03:37:53;;;;;;;5.77;2.00;;;15.70;99.60;;;;;;5024083;28;20440;-65
2022/10/25 03:40:21;;;;;;;4.90;1.40;;;15.70;99.50;;;;;;5023915;28;20946;-66
2022/10/25 03:42:47;;;;;;;5.40;1.60;;;15.70;99.70;;;;;;5024669;28;20554;-66
2022/10/25 03:45:15;;;;;;;3.33;1.90;;;15.70;99.80;;;;;;5023638;28;20450;-65
2022/10/25 03:47:42;;;;;;;10.03;1.67;;;15.80;99.90;;;;;;5023905;28;20471;-65
2022/10/25 03:50:09;;;;;;;5.30;1.87;;;15.70;99.90;;;;;;5023851;28;20448;-65
2022/10/25 03:52:37;;;;;;;4.20;1.40;;;15.70;99.90;;;;;;5023085;28;20474;-65
2022/10/25 03:55:04;;;;;;;5.40;2.20;;;15.70;99.90;;;;;;5023200;28;20463;-65
2022/10/25 03:57:31;;;;;;;6.43;1.50;;;15.70;99.90;;;;;;5023289;28;20504;-66
2022/10/25 03:59:58;;;;;;;6.50;2.00;;;15.70;99.90;;;;;;5023866;28;20452;-65
2022/10/25 04:02:27;;;;;;;7.93;2.67;;;15.80;99.90;;;;;;5024726;28;20479;-65
2022/10/25 04:04:54;;;;;;;6.03;2.00;;;15.80;99.90;;;;;;5023939;28;20454;-66
2022/10/25 04:07:21;;;;;;;5.70;1.70;;;15.70;99.90;;;;;;5024814;28;20491;-66
2022/10/25 04:09:47;;;;;;;6.60;2.00;;;15.70;99.90;;;;;;5024141;28;20490;-65
2022/10/25 04:12:14;;;;;;;6.13;1.73;;;15.70;99.90;;;;;;5024801;28;20479;-66
2022/10/25 04:14:41;;;;;;;11.67;2.87;;;15.80;99.90;;;;;;5024271;28;20447;-66
2022/10/25 04:17:08;;;;;;;6.63;1.60;;;15.80;99.90;;;;;;5024135;28;20444;-66
2022/10/25 04:19:36;;;;;;;6.77;2.33;;;15.80;99.90;;;;;;5024705;28;20447;-66
2022/10/25 04:22:03;;;;;;;5.10;2.23;;;15.80;99.90;;;;;;5023331;28;20483;-65
2022/10/25 04:24:30;;;;;;;7.87;1.97;;;15.70;99.90;;;;;;5023522;28;20432;-66
2022/10/25 04:26:57;;;;;;;7.00;1.93;;;15.70;99.90;;;;;;5023932;28;20514;-65
2022/10/25 04:29:24;;;;;;;5.73;1.83;;;15.70;99.90;;;;;;5023684;28;20454;-65
2022/10/25 04:31:50;;;;;;;8.70;3.40;;;15.70;99.90;;;;;;5024606;28;20491;-66
2022/10/25 04:34:17;;;;;;;6.83;1.90;;;15.70;99.70;;;;;;5023820;28;20459;-66
2022/10/25 04:36:45;;;;;;;5.90;1.60;;;15.70;99.90;;;;;;5025119;28;20448;-66
2022/10/25 04:39:12;;;;;;;10.43;2.20;;;15.70;99.90;;;;;;5025667;28;20451;-66
2022/10/25 04:41:39;;;;;;;4.50;1.83;;;15.60;99.90;;;;;;5023503;28;20428;-66
2022/10/25 04:44:06;;;;;;;6.83;2.20;;;15.70;99.90;;;;;;5023928;28;20448;-65
2022/10/25 04:46:32;;;;;;;4.80;1.70;;;15.70;99.80;;;;;;5025180;28;20459;-65
2022/10/25 04:48:59;;;;;;;5.70;2.40;;;15.70;99.90;;;;;;5023044;28;20494;-65
2022/10/25 04:51:26;;;;;;;7.90;1.97;;;15.70;99.90;;;;;;5023438;28;20454;-66
2022/10/25 04:53:57;;;;;;;11.97;2.43;;;15.70;99.90;;;;;;5022957;28;20547;-66
2022/10/25 04:56:24;;;;;;;5.13;1.70;;;15.70;99.80;;;;;;5023808;28;20486;-66
2022/10/25 04:58:50;;;;;;;7.47;1.73;;;15.70;99.70;;;;;;5023466;28;20451;-65
2022/10/25 05:01:18;;;;;;;8.13;1.90;;;15.70;99.80;;;;;;5017413;28;20463;-65
2022/10/25 05:03:45;;;;;;;3.60;1.80;;;15.60;99.60;;;;;;5018075;28;21028;-65
2022/10/25 05:06:14;;;;;;;8.20;2.23;;;15.60;99.60;;;;;;5022262;28;20461;-65
2022/10/25 05:08:43;;;;;;;7.03;2.03;;;15.60;99.70;;;;;;5022177;28;20491;-65
2022/10/25 05:11:13;;;;;;;5.07;1.73;;;15.60;99.80;;;;;;5022822;28;20455;-65
2022/10/25 05:13:41;;;;;;;4.50;1.97;;;15.50;99.90;;;;;;5022895;28;20474;-65
2022/10/25 05:16:10;;;;;;;5.17;2.33;;;15.50;99.90;;;;;;5002687;28;20958;-65
2022/10/25 05:18:37;;;;;;;7.43;1.97;;;15.50;99.90;;;;;;5023119;28;20486;-65
2022/10/25 05:21:05;;;;;;;7.53;1.63;;;15.60;99.70;;;;;;5021872;28;20466;-65
2022/10/25 05:23:33;;;;;;;4.33;1.40;;;15.50;99.70;;;;;;5022998;28;20483;-65
2022/10/25 05:26:01;;;;;;;3.40;1.70;;;15.50;99.70;;;;;;5021869;28;20451;-65
2022/10/25 05:28:29;;;;;;;2.90;1.70;;;15.50;99.70;;;;;;5023438;28;20491;-65
2022/10/25 05:30:56;;;;;;;8.67;2.20;;;15.50;99.70;;;;;;5022519;28;20447;-65
2022/10/25 05:33:23;;;;;;;5.00;1.73;;;15.50;99.60;;;;;;5021954;28;20490;-65
2022/10/25 05:35:50;;;;;;;5.20;1.40;;;15.50;99.50;;;;;;5021529;28;20490;-65
2022/10/25 05:38:17;;;;;;;4.63;1.80;;;15.50;99.40;;;;;;5021497;28;20448;-65
2022/10/25 05:40:43;;;;;;;5.23;1.87;;;15.50;99.60;;;;;;5021568;28;20466;-65
2022/10/25 05:43:10;;;;;;;6.57;1.90;;;15.40;99.60;;;;;;5020583;28;20470;-65
2022/10/25 05:45:38;;;;;;;4.47;1.93;;;15.50;99.60;;;;;;5021949;28;20980;-65
2022/10/25 05:48:05;;;;;;;9.50;2.10;;;15.50;99.50;;;;;;5021404;28;20553;-65
2022/10/25 05:50:31;;;;;;;5.47;2.17;;;15.40;99.40;;;;;;5020529;28;20538;-66
2022/10/25 05:52:58;;;;;;;6.43;2.13;;;15.40;99.50;;;;;;5019272;28;20550;-64
2022/10/25 05:55:25;;;;;;;6.60;1.90;;;15.40;99.50;;;;;;5024171;28;20997;-65
2022/10/25 05:57:52;;;;;;;8.93;2.57;;;15.40;99.40;;;;;;5022865;28;20444;-65
2022/10/25 06:00:19;;;;;;;6.53;3.17;;;15.40;99.30;;;;;;5023183;28;20456;-65
2022/10/25 06:02:47;;;;;;;9.90;2.30;;;15.40;99.30;;;;;;5022921;28;20493;-67
2022/10/25 06:05:13;;;;;;;3.43;1.87;;;15.30;99.30;;;;;;5022511;28;20459;-67
2022/10/25 06:07:40;;;;;;;8.40;2.17;;;15.40;99.20;;;;;;5022806;28;20474;-67
2022/10/25 06:10:08;;;;;;;5.47;1.63;;;15.40;99.10;;;;;;5022442;28;20438;-68
2022/10/25 06:12:35;;;;;;;7.10;2.53;;;15.30;99.10;;;;;;5022630;28;20869;-67
2022/10/25 06:15:02;;;;;;;7.33;2.53;;;15.30;99.20;;;;;;5022053;28;20450;-67
2022/10/25 06:17:28;;;;;;;10.83;1.73;;;15.30;99.30;;;;;;5022457;28;20457;-67
2022/10/25 06:19:56;;;;;;;6.80;2.40;;;15.30;99.30;;;;;;5022090;28;20444;-67
2022/10/25 06:22:23;;;;;;;6.70;2.17;;;15.30;99.30;;;;;;5022103;28;20476;-67
2022/10/25 06:24:50;;;;;;;4.47;1.80;;;15.30;99.30;;;;;;5022582;28;20428;-67
2022/10/25 06:27:16;;;;;;;5.10;1.70;;;15.30;99.30;;;;;;5023898;28;20432;-67
2022/10/25 06:29:43;;;;;;;5.37;2.17;;;15.30;99.30;;;;;;5024992;28;20462;-67
2022/10/25 06:32:10;;;;;;;4.00;1.90;;;15.30;99.30;;;;;;5024287;28;21011;-68
2022/10/25 06:34:36;;;;;;;8.77;1.97;;;15.30;99.30;;;;;;5027266;28;20455;-68
2022/10/25 06:37:05;;;;;;;9.83;2.20;;;15.30;99.30;;;;;;5025026;28;20477;-68
2022/10/25 06:39:32;;;;;;;7.13;2.10;;;15.30;99.30;;;;;;5024024;28;20443;-68
2022/10/25 06:41:58;;;;;;;9.07;1.73;;;15.30;99.30;;;;;;5024883;28;20478;-67
2022/10/25 06:44:25;;;;;;;6.50;2.53;;;15.30;99.40;;;;;;5025087;28;20451;-67
2022/10/25 06:46:52;;;;;;;9.57;2.63;;;15.30;99.40;;;;;;5026278;28;20455;-67
2022/10/25 06:49:19;;;;;;;8.20;1.90;;;15.30;99.30;;;;;;5025245;28;20497;-67
2022/10/25 06:51:45;;;;;;;9.90;2.43;;;15.30;99.30;;;;;;5025963;28;20458;-67
2022/10/25 06:54:13;;;;;;;5.53;1.77;;;15.30;99.40;;;;;;5023892;28;20455;-67
2022/10/25 06:56:40;;;;;;;3.90;2.00;;;15.30;99.40;;;;;;5022539;28;20954;-67
2022/10/25 06:59:07;;;;;;;7.90;1.83;;;15.30;99.40;;;;;;5024522;28;20439;-67
2022/10/25 07:01:34;;;;;;;8.20;2.30;;;15.30;99.50;;;;;;5022581;28;20950;-66
2022/10/25 07:04:03;;;;;;;7.97;2.37;;;15.40;99.50;;;;;;5019469;28;20459;-67
2022/10/25 07:06:34;;;;;;;4.57;2.50;;;15.40;99.60;;;;;;5019811;28;20458;-68
2022/10/25 07:09:01;;;;;;;7.00;2.37;;;15.50;99.60;;;;;;5020220;28;20475;-67
2022/10/25 07:11:31;;;;;;;3.23;1.83;;;15.50;99.50;;;;;;5019793;28;20458;-67
2022/10/25 07:14:00;;;;;;;5.00;2.20;;;15.50;99.60;;;;;;5019460;28;21001;-67
2022/10/25 07:16:28;;;;;;;7.83;2.47;;;15.50;99.50;;;;;;5019874;28;20865;-68
2022/10/25 07:18:59;;;;;;;7.53;2.20;;;15.60;99.50;;;;;;5020189;28;20534;-69
2022/10/25 07:21:26;;;;;;;3.67;1.93;;;15.60;99.50;;;;;;5020157;28;20490;-68
2022/10/25 07:23:53;;;;;;;4.70;2.00;;;15.60;99.40;;;;;;5018939;28;20482;-68
2022/10/25 07:26:22;;;;;;;3.90;2.00;;;15.60;99.50;;;;;;5017982;28;20452;-68
2022/10/25 07:28:52;;;;;;;7.63;2.00;;;15.60;99.40;;;;;;5017743;28;20492;-68
2022/10/25 07:31:20;;;;;;;4.23;2.20;;;15.70;99.50;;;;;;5017826;28;20446;-69
2022/10/25 07:33:48;;;;;;;4.47;2.07;;;15.70;99.50;;;;;;5017886;28;20828;-68
2022/10/25 07:36:15;;;;;;;5.83;2.10;;;15.80;99.60;;;;;;5017652;28;20460;-68
2022/10/25 07:38:42;;;;;;;7.37;2.20;;;15.80;99.50;;;;;;5017796;28;20523;-68
2022/10/25 07:41:09;;;;;;;10.47;2.67;;;15.80;99.30;;;;;;5021976;28;20981;-69
2022/10/25 07:43:37;;;;;;;5.10;2.03;;;15.80;99.20;;;;;;5025509;28;20475;-69
2022/10/25 07:46:06;;;;;;;9.50;2.10;;;15.80;99.10;;;;;;5019834;28;20440;-69
2022/10/25 07:48:33;;;;;;;5.63;2.30;;;15.90;99.20;;;;;;5022063;28;20484;-69
2022/10/25 07:51:03;;;;;;;3.70;2.10;;;15.90;99.10;;;;;;5018649;28;20443;-69
2022/10/25 07:53:30;;;;;;;7.33;2.27;;;15.90;99.10;;;;;;5016351;28;20861;-70
2022/10/25 07:55:57;;;;;;;5.57;2.37;;;15.90;99.10;;;;;;5018324;28;20459;-71
2022/10/25 07:58:24;;;;;;;7.73;2.40;;;15.90;99.20;;;;;;5019079;28;20459;-70
2022/10/25 08:00:51;;;;;;;9.40;2.50;;;15.90;99.30;;;;;;5017900;28;20455;-70
2022/10/25 08:03:19;;;;;;;14.43;3.20;;;16.00;99.50;;;;;;5016271;28;20475;-69
2022/10/25 08:05:47;;;;;;;7.17;2.47;;;16.00;99.30;;;;;;5017593;28;20467;-68
2022/10/25 08:08:14;;;;;;;9.70;2.60;;;16.10;99.10;;;;;;5016731;28;20835;-68
2022/10/25 08:10:43;;;;;;;12.73;2.17;;;16.20;99.10;;;;;;5017313;28;20448;-69
2022/10/25 08:13:11;;;;;;;5.07;1.97;;;16.30;99.00;;;;;;5015821;28;20483;-68
2022/10/25 08:15:39;;;;;;;7.53;2.23;;;16.40;98.90;;;;;;5016435;28;20452;-69
2022/10/25 08:18:08;;;;;;;6.80;2.37;;;16.50;98.60;;;;;;5017424;28;20479;-69
2022/10/25 08:20:36;;;;;;;4.33;1.90;;;16.60;98.40;;;;;;5017858;28;20440;-68
2022/10/25 08:23:03;;;;;;;5.40;2.00;;;16.80;98.00;;;;;;5018309;28;20540;-68
2022/10/25 08:25:29;;;;;;;5.90;1.53;;;16.80;97.30;;;;;;5017733;28;20462;-68
2022/10/25 08:27:56;;;;;;;13.13;2.23;;;16.90;96.90;;;;;;5017955;28;20459;-68
2022/10/25 08:30:23;;;;;;;9.40;2.03;;;16.90;96.80;;;;;;5017836;28;20452;-69
2022/10/25 08:32:50;;;;;;;6.63;2.10;;;16.80;96.90;;;;;;5019531;28;20506;-69
2022/10/25 08:35:18;;;;;;;7.30;2.00;;;16.80;96.90;;;;;;5018071;28;20454;-68
2022/10/25 08:37:46;;;;;;;5.93;1.90;;;16.80;96.70;;;;;;5020176;28;20452;-68
2022/10/25 08:40:19;;;;;;;5.80;1.90;;;16.90;96.80;;;;;;5018570;28;20443;-67
2022/10/25 08:42:59;;;;;;;4.93;1.80;;;16.90;96.50;;;;;;5018435;28;20463;-68
2022/10/25 08:45:32;;;;;;;7.00;1.90;;;16.90;96.80;;;;;;5018633;28;20511;-68
2022/10/25 08:48:01;;;;;;;4.90;1.50;;;16.80;97.20;;;;;;5019725;28;20440;-68
2022/10/25 08:50:35;;;;;;;8.87;2.30;;;16.80;97.00;;;;;;5018374;28;20443;-68
2022/10/25 08:53:06;;;;;;;4.43;1.73;;;16.80;96.60;;;;;;5018964;28;20475;-68
2022/10/25 08:55:35;;;;;;;6.30;1.60;;;16.80;96.00;;;;;;5018345;28;20511;-67
2022/10/25 08:58:05;;;;;;;3.03;1.40;;;16.80;96.00;;;;;;5017974;28;20467;-68
2022/10/25 09:00:37;;;;;;;5.03;1.50;;;16.80;95.90;;;;;;5018127;28;20463;-68
2022/10/25 09:03:11;;;;;;;5.50;1.50;;;16.80;95.90;;;;;;5021211;28;20479;-68
2022/10/25 09:05:41;;;;;;;6.90;1.77;;;16.70;94.80;;;;;;5025792;28;20436;-68
2022/10/25 09:08:32;;;;;;;4.37;1.83;;;16.70;95.10;;;;;;5027947;28;20452;-68
2022/10/25 09:11:06;;;;;;;4.13;2.43;;;16.80;95.10;;;;;;5029816;28;20460;-67
2022/10/25 09:13:40;;;;;;;3.30;2.13;;;16.80;95.70;;;;;;5028120;28;20470;-65
2022/10/25 09:16:14;;;;;;;4.17;2.00;;;16.80;94.50;;;;;;5028151;28;20435;-65
2022/10/25 09:18:46;;;;;;;4.97;1.90;;;16.80;94.80;;;;;;5029193;28;20436;-65
2022/10/25 09:21:17;;;;;;;7.40;2.87;;;16.80;94.80;;;;;;5029552;28;20439;-65
2022/10/25 09:23:58;;;;;;;4.10;2.33;;;16.90;94.90;;;;;;5029352;28;20476;-66
2022/10/25 09:26:40;;;;;;;5.87;2.70;;;17.00;95.40;;;;;;5029940;28;20925;-66
2022/10/25 09:29:14;;;;;;;7.27;2.50;;;17.10;95.10;;;;;;5029201;28;20982;-65
2022/10/25 09:31:48;;;;;;;4.13;2.30;;;17.10;93.70;;;;;;5029296;28;20443;-66
2022/10/25 09:34:18;;;;;;;5.30;2.23;;;17.10;93.20;;;;;;5028069;28;20463;-66
2022/10/25 09:36:47;;;;;;;3.30;2.43;;;17.00;93.10;;;;;;5028323;28;20428;-66
2022/10/25 09:39:20;;;;;;;3.57;1.90;;;17.10;93.40;;;;;;5028744;28;20436;-66
2022/10/25 09:41:51;;;;;;;8.80;2.70;;;17.10;94.10;;;;;;5028246;28;20459;-65
2022/10/25 09:44:29;;;;;;;10.50;2.07;;;17.10;93.70;;;;;;5028940;28;20431;-65
2022/10/25 09:47:01;;;;;;;5.77;2.10;;;17.10;94.30;;;;;;5028515;28;20434;-65
2022/10/25 09:49:34;;;;;;;7.23;1.90;;;17.20;93.90;;;;;;5022788;28;20534;-65
2022/10/25 09:52:12;;;;;;;7.20;2.57;;;17.20;93.60;;;;;;5026098;28;20478;-65
2022/10/25 09:54:45;;;;;;;4.37;1.73;;;17.30;94.10;;;;;;5024621;28;20923;-66
2022/10/25 09:57:12;;;;;;;5.90;2.20;;;17.40;93.60;;;;;;5024578;28;20436;-66
2022/10/25 09:59:39;;;;;;;7.30;1.97;;;17.50;93.30;;;;;;5025608;28;20444;-65
2022/10/25 10:02:09;;;;;;;5.00;2.10;;;17.50;92.80;;;;;;5028991;28;20467;-65
2022/10/25 10:04:38;;;;;;;3.10;1.70;;;17.50;92.70;;;;;;5028867;28;20440;-65
2022/10/25 10:07:11;;;;;;;5.50;1.80;;;17.60;92.40;;;;;;5027911;28;20455;-66
2022/10/25 10:09:42;;;;;;;4.00;2.13;;;17.60;92.10;;;;;;5026915;28;20471;-65
2022/10/25 10:12:17;;;;;;;2.97;1.53;;;17.70;91.90;;;;;;5028336;28;20491;-66
2022/10/25 10:14:50;;;;;;;4.23;1.77;;;17.70;91.80;;;;;;5029348;28;20443;-66
2022/10/25 10:17:18;;;;;;;2.60;1.23;;;17.70;91.70;;;;;;5028956;28;20795;-65
2022/10/25 10:20:11;;;;;;;8.47;2.00;;;17.80;91.60;;;;;;5029066;28;20446;-65
2022/10/25 10:22:43;;;;;;;3.27;1.50;;;18.00;91.70;;;;;;5029668;28;20463;-65
2022/10/25 10:25:16;;;;;;;4.97;1.37;;;18.20;91.40;;;;;;5028325;28;20439;-65
2022/10/25 10:27:44;;;;;;;5.20;1.10;;;18.30;89.70;;;;;;5028015;28;20432;-65
2022/10/25 10:30:22;;;;;;;6.77;1.40;;;18.50;88.90;;;;;;5028682;28;20570;-65
2022/10/25 10:32:54;;;;;;;4.20;1.20;;;18.60;86.60;;;;;;5028651;28;20483;-64
2022/10/25 10:35:32;;;;;;;5.33;1.80;;;18.60;87.40;;;;;;5029990;28;20462;-64
2022/10/25 10:38:22;;;;;;;3.83;1.93;;;18.70;88.00;;;;;;5029759;28;20439;-66
2022/10/25 10:40:49;;;;;;;4.00;1.77;;;18.70;87.50;;;;;;5031956;28;20430;-66
2022/10/25 10:43:23;;;;;;;6.63;1.80;;;18.70;88.50;;;;;;5031029;28;20534;-66
2022/10/25 10:45:51;;;;;;;5.60;1.53;;;18.80;89.90;;;;;;5030775;28;20446;-67
2022/10/25 10:48:21;;;;;;;4.20;1.70;;;18.90;89.10;;;;;;5031717;28;20458;-67
2022/10/25 10:50:51;;;;;;;3.97;1.90;;;19.10;87.30;;;;;;5031108;28;20458;-66
2022/10/25 10:53:21;;;;;;;4.40;1.87;;;19.20;89.00;;;;;;5032456;28;20467;-66
2022/10/25 10:55:50;;;;;;;4.80;1.20;;;19.50;87.00;;;;;;5032093;28;20467;-66
2022/10/25 10:58:18;;;;;;;3.63;1.40;;;20.00;84.30;;;;;;5031928;28;20462;-66
2022/10/25 11:00:50;;;;;;;4.90;1.50;;;20.60;80.60;;;;;;5032217;28;20452;-67
2022/10/25 11:03:57;;;;;;;13.03;1.83;;;21.20;77.70;;;;;;5031709;28;20979;-66
2022/10/25 11:06:27;;;;;;;2.70;0.80;;;21.80;74.40;;;;;;5032073;28;20508;-67
2022/10/25 11:09:14;;;;;;;1.90;0.87;;;22.30;71.80;;;;;;5032846;28;20435;-67
2022/10/25 11:11:41;;;;;;;3.10;1.40;;;22.50;68.40;;;;;;5031773;28;20922;-69
2022/10/25 11:14:12;;;;;;;8.67;1.70;;;22.70;66.90;;;;;;5034510;28;20452;-69
2022/10/25 11:16:52;;;;;;;6.10;1.63;;;22.90;64.80;;;;;;5031939;28;20439;-69
2022/10/25 11:19:46;;;;;;;2.83;1.20;;;23.30;63.70;;;;;;5031179;28;20440;-66
2022/10/25 11:22:48;;;;;;;3.60;1.47;;;23.50;61.10;;;;;;5032845;28;20478;-67
2022/10/25 11:25:28;;;;;;;6.83;2.37;;;23.30;61.20;;;;;;5033463;28;20801;-67
2022/10/25 11:28:11;;;;;;;4.03;1.20;;;23.30;62.60;;;;;;5031856;28;20800;-67
2022/10/25 11:30:45;;;;;;;8.60;1.93;;;23.70;60.70;;;;;;5032068;28;20534;-68
2022/10/25 11:33:29;;;;;;;5.83;1.57;;;23.90;59.50;;;;;;5032354;28;20502;-67
2022/10/25 11:36:28;;;;;;;5.53;1.70;;;24.10;58.70;;;;;;5032297;28;20443;-67
2022/10/25 11:39:04;;;;;;;5.40;1.83;;;24.00;59.40;;;;;;5020541;28;20446;-67
2022/10/25 11:41:43;;;;;;;4.33;1.80;;;23.60;59.40;;;;;;5032598;28;20439;-67
2022/10/25 11:44:38;;;;;;;8.50;2.00;;;23.30;60.40;;;;;;5031510;28;20503;-67
2022/10/25 11:47:13;;;;;;;7.53;1.90;;;23.60;59.70;;;;;;5031484;28;20428;-68
2022/10/25 11:49:54;;;;;;;3.60;1.20;;;23.70;59.00;;;;;;5031185;28;20492;-67
2022/10/25 11:52:55;;;;;;;6.60;1.43;;;23.60;59.00;;;;;;5031188;28;20494;-68
2022/10/25 11:55:31;;;;;;;5.70;1.70;;;23.70;59.30;;;;;;5000477;28;20458;-66
2022/10/25 11:58:10;;;;;;;5.60;1.80;;;23.90;58.50;;;;;;5032073;28;20439;-68
2022/10/25 12:00:45;;;;;;;2.90;1.13;;;24.20;57.80;;;;;;5035505;28;20420;-68
2022/10/25 12:03:25;;;;;;;2.60;1.00;;;24.70;56.30;;;;;;5034771;28;20459;-68
2022/10/25 12:06:00;;;;;;;4.77;1.40;;;25.10;55.40;;;;;;5035038;28;20434;-69
2022/10/25 12:08:36;;;;;;;5.53;1.67;;;25.10;53.70;;;;;;5034486;28;20499;-69
2022/10/25 12:11:07;;;;;;;6.77;1.17;;;24.90;53.50;;;;;;5034255;28;20494;-69
2022/10/25 12:13:39;;;;;;;3.30;1.10;;;24.60;54.00;;;;;;5033315;28;20507;-66
2022/10/25 12:16:12;;;;;;;3.93;1.07;;;24.00;55.00;;;;;;5031984;28;20562;-67
2022/10/25 12:18:42;;;;;;;2.13;1.00;;;23.50;56.40;;;;;;5033111;28;20442;-68
2022/10/25 12:21:14;;;;;;;3.83;1.50;;;23.10;57.60;;;;;;5033003;28;20432;-69
2022/10/25 12:23:45;;;;;;;2.90;1.10;;;22.90;58.40;;;;;;5032365;28;20482;-69
2022/10/25 12:26:22;;;;;;;4.67;1.50;;;22.80;59.40;;;;;;5034352;28;20432;-69
2022/10/25 12:28:51;;;;;;;9.40;1.30;;;22.70;59.10;;;;;;5033664;28;20431;-67
2022/10/25 12:31:20;;;;;;;4.23;1.23;;;22.50;59.90;;;;;;5033976;28;20492;-68
2022/10/25 12:33:52;;;;;;;3.70;1.43;;;22.40;60.40;;;;;;5033091;28;20471;-68
2022/10/25 12:36:26;;;;;;;6.00;1.13;;;22.30;61.70;;;;;;5033777;28;20436;-69
2022/10/25 12:38:53;;;;;;;2.10;0.70;;;22.50;61.10;;;;;;5034857;28;20424;-69
2022/10/25 12:41:23;;;;;;;2.80;0.93;;;23.10;59.10;;;;;;5033909;28;20440;-69
2022/10/25 12:44:08;;;;;;;5.60;1.00;;;23.70;56.80;;;;;;5032572;28;20470;-68
2022/10/25 12:46:56;;;;;;;3.73;1.07;;;23.80;55.80;;;;;;5034332;28;20428;-70
2022/10/25 12:49:43;;;;;;;5.23;1.30;;;23.80;56.70;;;;;;5032922;28;20432;-67
2022/10/25 12:52:23;;;;;;;4.67;0.80;;;24.10;56.40;;;;;;5031292;28;20546;-67
2022/10/25 12:55:05;;;;;;;3.23;0.90;;;24.70;54.80;;;;;;5030666;28;20444;-70
2022/10/25 12:57:42;;;;;;;2.90;1.00;;;24.80;50.30;;;;;;5032622;28;20439;-70
2022/10/25 13:00:14;;;;;;;2.23;0.90;;;24.50;51.70;;;;;;5032551;28;20821;-69
2022/10/25 13:03:02;;;;;;;2.70;0.83;;;24.40;52.40;;;;;;5030290;28;20466;-66
2022/10/25 13:05:53;;;;;;;3.43;0.90;;;24.50;53.30;;;;;;5028698;28;20432;-66